Aiea, Hawaii
Current Conditions -  °F | °C
As of 4:53 PM on Tuesday 21 Oct 2014 (Local Time) from PHNL Reporting Station
Broken Clouds Broken Clouds  
Wind Chill: 29°   Ceiling: 5500
Heat Index: 33°   Visibility: 10mi
Dew Point: 22°   Wind: 12mph
Humidity: 65%   Direction: 70°ENE
Pressure: 29.94"   Gusts: NA
Location:  21.38°N, 157.93°W
Report Text: PHNL 220253Z 07010KT 10SM FEW025 SCT047 BKN055 BKN200 29/22 A2994 RMK AO2 SLP137 T02940222 55000
Loading
Personal Weather Stations






























Interactive Weather Map
Tropical Storm Tracking
New forecast layout! Learn more

10-Day Weather Forecast

Advertisements
Track Severe Weather on mobile